createdAt,value
2023-03-07T00:00:15.268Z,24.00
2023-03-07T00:03:16.266Z,23.20
2023-03-07T00:06:14.934Z,35.20
2023-03-07T00:08:56.655Z,25.50
2023-03-07T00:11:48.423Z,25.50
2023-03-07T00:14:28.668Z,24.60
2023-03-07T00:17:15.235Z,27.00
2023-03-07T00:19:54.331Z,26.50
2023-03-07T00:22:43.578Z,26.90
2023-03-07T00:25:43.216Z,24.20
2023-03-07T00:28:44.223Z,23.90
2023-03-07T00:31:45.276Z,28.20
2023-03-07T00:34:45.677Z,23.70
2023-03-07T00:37:51.255Z,25.70
2023-03-07T00:40:52.234Z,24.10
2023-03-07T00:44:00.309Z,27.70
2023-03-07T00:47:01.260Z,23.50
2023-03-07T00:50:01.262Z,25.30
2023-03-07T00:53:07.241Z,24.40
2023-03-07T00:56:25.524Z,23.20
2023-03-07T00:59:31.272Z,24.70
2023-03-07T01:02:31.283Z,26.30
2023-03-07T01:05:34.283Z,26.40
2023-03-07T01:08:37.810Z,23.00
2023-03-07T01:11:42.306Z,24.50
2023-03-07T01:14:45.355Z,24.50
2023-03-07T01:17:46.372Z,21.80
2023-03-07T01:20:47.886Z,24.80
2023-03-07T01:23:52.360Z,22.90
2023-03-07T01:26:55.553Z,22.30
2023-03-07T01:29:56.510Z,22.00
2023-03-07T01:32:57.872Z,25.40
2023-03-07T01:36:00.589Z,21.50
2023-03-07T01:39:03.359Z,19.70
2023-03-07T01:42:05.375Z,23.60
2023-03-07T01:45:18.746Z,20.00
2023-03-07T01:48:18.403Z,21.30
2023-03-07T01:51:19.398Z,23.10
2023-03-07T01:54:19.621Z,22.00
2023-03-07T01:57:22.402Z,19.50
2023-03-07T02:00:33.388Z,22.10
2023-03-07T02:03:46.712Z,23.00
2023-03-07T02:06:47.417Z,21.70
2023-03-07T02:09:52.850Z,25.10
2023-03-07T02:12:54.402Z,34.60
2023-03-07T02:16:07.655Z,34.30
2023-03-07T02:19:08.477Z,33.30
2023-03-07T02:22:20.708Z,29.90
2023-03-07T02:25:40.400Z,24.00
2023-03-07T02:28:41.818Z,25.90
2023-03-07T02:31:41.441Z,19.10
2023-03-07T02:34:42.486Z,27.80
2023-03-07T02:37:48.553Z,30.70
2023-03-07T02:43:42.524Z,22.20
2023-03-07T02:46:43.447Z,20.20
2023-03-07T02:49:43.509Z,20.90
2023-03-07T02:52:43.513Z,25.10
2023-03-07T02:55:44.545Z,25.60
2023-03-07T02:58:53.586Z,23.60
2023-03-07T03:01:54.576Z,21.00
2023-03-07T03:04:54.471Z,19.10
2023-03-07T03:07:55.512Z,23.00
2023-03-07T03:11:00.488Z,23.90
2023-03-07T03:14:04.588Z,23.70
2023-03-07T03:17:05.503Z,24.90
2023-03-07T03:20:07.517Z,20.60
2023-03-07T03:23:08.515Z,24.00
2023-03-07T03:26:10.891Z,24.50
2023-03-07T03:29:10.532Z,22.30
2023-03-07T03:32:11.651Z,26.70
2023-03-07T03:35:11.560Z,25.70
2023-03-07T03:38:16.566Z,24.80
2023-03-07T03:41:18.753Z,31.20
2023-03-07T03:44:18.594Z,27.60
2023-03-07T03:47:19.666Z,23.00
2023-03-07T03:50:19.663Z,28.70
2023-03-07T03:53:08.647Z,28.50
2023-03-07T03:56:17.982Z,29.40
2023-03-07T03:59:21.839Z,29.20
2023-03-07T04:02:23.639Z,25.90
2023-03-07T04:05:23.570Z,24.20
2023-03-07T04:08:25.615Z,26.80
2023-03-07T04:11:26.601Z,23.60
2023-03-07T04:14:36.171Z,25.90
2023-03-07T04:17:36.654Z,27.30
2023-03-07T04:20:37.652Z,23.00
2023-03-07T04:23:38.713Z,27.20
2023-03-07T04:26:31.773Z,24.80
2023-03-07T04:29:33.639Z,28.90
2023-03-07T04:32:45.674Z,28.10
2023-03-07T04:35:45.726Z,24.50
2023-03-07T04:38:46.802Z,27.30
2023-03-07T04:41:46.910Z,23.50
2023-03-07T04:44:49.858Z,27.00
2023-03-07T04:47:56.687Z,24.10
2023-03-07T04:50:56.820Z,24.10
2023-03-07T04:53:59.697Z,23.00
2023-03-07T04:57:03.002Z,20.90
2023-03-07T05:00:07.029Z,23.70
2023-03-07T05:03:09.905Z,21.10
2023-03-07T05:06:17.825Z,25.70
2023-03-07T05:09:21.526Z,22.90
2023-03-07T05:12:26.071Z,20.60
2023-03-07T05:15:25.758Z,22.30
2023-03-07T05:18:30.231Z,24.70
2023-03-07T05:21:31.786Z,21.30
2023-03-07T05:24:34.798Z,22.30
2023-03-07T05:27:35.736Z,23.20
2023-03-07T05:30:40.722Z,23.00
2023-03-07T05:33:41.401Z,24.20
2023-03-07T05:36:43.726Z,19.90
2023-03-07T05:39:45.769Z,18.30
2023-03-07T05:42:46.795Z,17.50
2023-03-07T05:45:48.688Z,18.00
2023-03-07T05:48:49.111Z,17.00
2023-03-07T05:51:49.779Z,23.20
2023-03-07T05:54:52.272Z,18.30
2023-03-07T05:57:55.832Z,22.20
2023-03-07T06:01:01.572Z,23.50
2023-03-07T06:04:04.015Z,23.70
2023-03-07T06:07:04.582Z,16.90
2023-03-07T06:10:05.882Z,19.50
2023-03-07T06:13:08.882Z,19.50
2023-03-07T06:16:10.927Z,23.60
2023-03-07T06:19:16.938Z,22.80
2023-03-07T06:22:23.991Z,24.00
2023-03-07T06:25:30.416Z,23.00
2023-03-07T06:28:32.887Z,20.90
2023-03-07T06:31:40.587Z,21.60
2023-03-07T06:34:53.842Z,21.20
2023-03-07T06:37:59.458Z,23.60
2023-03-07T06:41:13.724Z,22.30
2023-03-07T06:44:20.227Z,22.40
2023-03-07T06:47:29.172Z,24.50
2023-03-07T06:50:35.369Z,20.50
2023-03-07T06:53:37.178Z,16.50
2023-03-07T06:56:45.305Z,20.30
2023-03-07T06:59:57.791Z,18.70
2023-03-07T07:03:01.061Z,18.90
2023-03-07T07:06:15.225Z,21.10
2023-03-07T07:09:19.099Z,18.50
2023-03-07T07:12:24.952Z,17.80
2023-03-07T07:15:36.077Z,17.90
2023-03-07T07:19:13.028Z,23.30
2023-03-07T07:22:12.626Z,21.40
2023-03-07T07:25:06.946Z,20.40
2023-03-07T07:27:52.830Z,18.80
2023-03-07T07:30:41.397Z,19.50
2023-03-07T07:33:25.172Z,20.20
2023-03-07T07:36:13.210Z,19.00
2023-03-07T07:38:54.671Z,20.90
2023-03-07T07:41:41.959Z,21.60
2023-03-07T07:44:22.274Z,23.20
2023-03-07T07:47:11.014Z,20.30
2023-03-07T07:49:50.456Z,22.10
2023-03-07T07:52:49.065Z,19.80
2023-03-07T07:55:29.039Z,22.10
2023-03-07T07:58:17.091Z,19.10
2023-03-07T08:01:10.076Z,19.70
2023-03-07T08:04:11.129Z,21.50
2023-03-07T08:07:12.061Z,21.50
2023-03-07T08:10:13.082Z,20.90
2023-03-07T08:13:16.024Z,21.20
2023-03-07T08:16:24.366Z,20.90
2023-03-07T08:19:25.129Z,24.90
2023-03-07T08:22:26.020Z,22.30
2023-03-07T08:25:49.379Z,20.50
2023-03-07T08:28:57.100Z,20.30
2023-03-07T08:31:59.169Z,20.40
2023-03-07T08:35:00.276Z,17.80
2023-03-07T08:38:00.125Z,16.70
2023-03-07T08:41:01.296Z,19.30
2023-03-07T08:44:02.104Z,18.00
2023-03-07T08:47:04.091Z,17.70
2023-03-07T08:50:06.124Z,20.30
2023-03-07T08:53:10.119Z,17.90
2023-03-07T08:56:14.084Z,18.90
2023-03-07T08:59:14.072Z,22.00
2023-03-07T09:02:15.082Z,16.20
2023-03-07T09:05:16.255Z,15.90
2023-03-07T09:08:17.535Z,17.50
2023-03-07T09:11:20.127Z,18.90
2023-03-07T09:14:23.113Z,17.00
2023-03-07T09:20:28.109Z,16.90
2023-03-07T09:23:28.271Z,17.20
2023-03-07T09:26:31.287Z,16.60
2023-03-07T09:29:31.249Z,18.50
2023-03-07T09:32:35.718Z,19.40
2023-03-07T09:35:38.218Z,17.10
2023-03-07T09:38:43.092Z,16.30
2023-03-07T09:42:26.590Z,15.20
2023-03-07T09:45:38.832Z,15.50
2023-03-07T09:49:11.130Z,11.90
2023-03-07T09:52:13.448Z,15.00
2023-03-07T09:55:14.290Z,13.80
2023-03-07T09:58:21.171Z,13.00
2023-03-07T10:01:21.261Z,15.00
2023-03-07T10:04:27.568Z,13.30
2023-03-07T10:07:29.197Z,15.60
2023-03-07T10:10:37.219Z,14.30
2023-03-07T10:13:49.340Z,14.20
2023-03-07T10:17:04.431Z,15.80
2023-03-07T10:20:19.023Z,14.00
2023-03-07T10:23:49.804Z,14.70
2023-03-07T10:27:21.235Z,14.90
2023-03-07T10:30:33.312Z,14.60
2023-03-07T10:33:39.287Z,12.70
2023-03-07T10:36:55.250Z,12.10
2023-03-07T10:40:11.215Z,14.60
2023-03-07T10:43:12.279Z,14.70
2023-03-07T10:46:31.335Z,13.40
2023-03-07T10:49:33.306Z,12.00
2023-03-07T10:52:53.282Z,13.60
2023-03-07T10:55:57.303Z,12.00
2023-03-07T10:59:25.295Z,12.50
2023-03-07T11:02:50.475Z,14.70
2023-03-07T11:05:58.514Z,11.40
2023-03-07T11:09:04.289Z,14.10
2023-03-07T11:12:31.745Z,11.10
2023-03-07T11:15:35.719Z,11.30
2023-03-07T11:18:51.259Z,14.60
2023-03-07T11:21:52.377Z,16.00
2023-03-07T11:24:48.436Z,17.00
2023-03-07T11:27:51.384Z,12.90
2023-03-07T11:31:01.424Z,17.10
2023-03-07T11:34:04.342Z,13.20
2023-03-07T11:37:23.553Z,12.40
2023-03-07T11:40:59.488Z,14.70
2023-03-07T11:44:20.338Z,13.40
2023-03-07T11:47:43.402Z,14.30
2023-03-07T11:50:44.584Z,13.60
2023-03-07T11:53:49.998Z,11.80
2023-03-07T11:56:54.380Z,13.20
2023-03-07T12:00:19.912Z,17.10
2023-03-07T12:03:38.450Z,13.40
2023-03-07T12:07:10.471Z,12.50
2023-03-07T12:10:42.432Z,14.70
2023-03-07T12:14:19.510Z,16.40
2023-03-07T12:17:51.512Z,17.90
2023-03-07T12:21:28.545Z,13.40
2023-03-07T12:24:39.730Z,14.80
2023-03-07T12:27:50.472Z,13.20
2023-03-07T12:31:21.130Z,14.10
2023-03-07T12:34:27.793Z,12.80
2023-03-07T12:37:33.519Z,13.50
2023-03-07T12:40:36.509Z,12.90
2023-03-07T12:43:51.518Z,13.10
2023-03-07T12:47:22.169Z,15.10
2023-03-07T12:50:43.429Z,12.10
2023-03-07T12:54:09.854Z,14.90
2023-03-07T12:57:21.634Z,13.70
2023-03-07T13:00:23.836Z,13.70
2023-03-07T13:03:33.816Z,14.00
2023-03-07T13:06:34.555Z,12.70
2023-03-07T13:09:39.859Z,13.00
2023-03-07T13:12:51.642Z,14.50
2023-03-07T13:16:02.557Z,18.40
2023-03-07T13:19:03.571Z,14.60
2023-03-07T13:21:56.657Z,14.40
2023-03-07T13:24:58.582Z,13.30
2023-03-07T13:28:05.539Z,14.70
2023-03-07T13:31:36.595Z,16.60
2023-03-07T13:34:57.677Z,16.30
2023-03-07T13:38:12.658Z,17.90
2023-03-07T13:41:11.692Z,15.50
2023-03-07T13:44:15.072Z,12.80
2023-03-07T13:47:16.574Z,16.30
2023-03-07T13:50:39.627Z,15.20
2023-03-07T13:53:58.572Z,14.10
2023-03-07T13:56:59.806Z,14.40
2023-03-07T14:00:02.600Z,13.70
2023-03-07T14:03:05.614Z,14.00
2023-03-07T14:06:05.756Z,18.20
2023-03-07T14:09:05.675Z,14.40
2023-03-07T14:12:32.786Z,16.90
2023-03-07T14:15:53.647Z,15.70
2023-03-07T14:19:04.650Z,15.10
2023-03-07T14:22:09.725Z,16.20
2023-03-07T14:25:35.112Z,13.30
2023-03-07T14:28:42.729Z,15.50
2023-03-07T14:31:43.760Z,13.00
2023-03-07T14:34:47.681Z,12.20
2023-03-07T14:37:48.710Z,12.60
2023-03-07T14:41:13.834Z,12.20
2023-03-07T14:44:30.688Z,13.00
2023-03-07T14:47:47.768Z,12.70
2023-03-07T14:50:50.746Z,14.90
2023-03-07T14:54:04.727Z,17.10
2023-03-07T14:57:06.949Z,16.80
2023-03-07T15:00:36.681Z,23.70
2023-03-07T15:03:37.901Z,17.60
2023-03-07T15:06:44.542Z,20.00
2023-03-07T15:09:47.765Z,16.30
2023-03-07T15:12:49.752Z,17.70
2023-03-07T15:15:55.788Z,16.90
2023-03-07T15:19:01.898Z,15.30
2023-03-07T15:22:14.788Z,16.70
2023-03-07T15:25:14.903Z,17.60
2023-03-07T15:28:16.804Z,18.80
2023-03-07T15:34:23.759Z,18.80
2023-03-07T15:37:44.801Z,23.20
2023-03-07T15:40:47.457Z,32.60
2023-03-07T15:43:48.848Z,31.00
2023-03-07T15:46:52.816Z,32.90
2023-03-07T15:50:01.874Z,35.70
2023-03-07T15:53:12.777Z,32.80
2023-03-07T15:56:15.898Z,30.00
2023-03-07T15:59:19.844Z,33.40
2023-03-07T16:02:47.154Z,34.60
2023-03-07T16:05:49.799Z,28.40
2023-03-07T16:08:50.811Z,27.80
2023-03-07T16:11:51.884Z,46.50
2023-03-07T16:15:00.028Z,51.00
2023-03-07T16:18:06.052Z,46.90
2023-03-07T16:21:07.922Z,31.50
2023-03-07T16:24:09.871Z,25.30
2023-03-07T16:27:10.927Z,21.50
2023-03-07T16:30:10.852Z,19.70
2023-03-07T16:33:11.871Z,17.20
2023-03-07T16:36:18.867Z,17.50
2023-03-07T16:39:20.102Z,15.10
2023-03-07T16:42:32.880Z,14.60
2023-03-07T16:45:49.213Z,18.40
2023-03-07T16:49:00.420Z,20.90
2023-03-07T16:52:08.939Z,22.40
2023-03-07T16:55:12.970Z,22.10
2023-03-07T16:58:15.578Z,19.90
2023-03-07T17:01:21.041Z,16.20
2023-03-07T17:04:27.274Z,16.10
2023-03-07T17:07:38.951Z,16.80
2023-03-07T17:10:39.983Z,14.70
2023-03-07T17:13:45.970Z,15.60
2023-03-07T17:16:48.984Z,13.70
2023-03-07T17:19:55.009Z,15.60
2023-03-07T17:23:07.510Z,15.50
2023-03-07T17:26:16.517Z,17.60
2023-03-07T17:29:22.235Z,16.80
2023-03-07T17:32:26.049Z,15.80
2023-03-07T17:35:28.018Z,16.50
2023-03-07T17:38:28.048Z,15.30
2023-03-07T17:41:28.108Z,16.70
2023-03-07T17:44:27.106Z,20.50
2023-03-07T17:47:15.997Z,16.70
2023-03-07T17:50:20.965Z,17.70
2023-03-07T17:53:23.102Z,17.70
2023-03-07T17:56:27.972Z,18.40
2023-03-07T17:59:29.018Z,17.60
2023-03-07T18:02:51.051Z,20.80
2023-03-07T18:05:52.227Z,19.30
2023-03-07T18:08:52.264Z,17.40
2023-03-07T18:11:52.045Z,21.30
2023-03-07T18:14:53.028Z,22.10
2023-03-07T18:17:55.049Z,20.40
2023-03-07T18:20:52.047Z,20.40
2023-03-07T18:23:39.073Z,25.40
2023-03-07T18:26:44.058Z,24.00
2023-03-07T18:29:49.317Z,30.00
2023-03-07T18:32:52.089Z,26.80
2023-03-07T18:35:53.064Z,25.90
2023-03-07T18:38:49.279Z,28.70
2023-03-07T18:41:56.957Z,27.90
2023-03-07T18:45:00.120Z,31.50
2023-03-07T18:48:03.070Z,32.70
2023-03-07T18:51:11.162Z,34.50
2023-03-07T18:54:15.324Z,38.30
2023-03-07T18:57:16.102Z,32.20
2023-03-07T19:00:21.203Z,40.70
2023-03-07T19:03:22.306Z,47.30
2023-03-07T19:06:26.102Z,46.20
2023-03-07T19:09:32.199Z,44.70
2023-03-07T19:12:28.432Z,44.40
2023-03-07T19:15:34.561Z,47.90
2023-03-07T19:18:35.179Z,46.20
2023-03-07T19:21:37.813Z,45.80
2023-03-07T19:24:40.189Z,52.00
2023-03-07T19:27:40.176Z,48.40
2023-03-07T19:30:45.892Z,47.20
2023-03-07T19:33:49.172Z,42.60
2023-03-07T19:36:51.715Z,46.00
2023-03-07T19:39:58.274Z,42.20
2023-03-07T19:42:59.224Z,45.50
2023-03-07T19:46:01.229Z,42.60
2023-03-07T19:49:07.247Z,46.50
2023-03-07T19:52:08.170Z,46.70
2023-03-07T19:55:09.232Z,42.50
2023-03-07T19:58:10.385Z,54.20
2023-03-07T20:01:13.401Z,48.70
2023-03-07T20:04:18.200Z,47.00
2023-03-07T20:07:20.320Z,48.00
2023-03-07T20:10:20.199Z,48.30
2023-03-07T20:13:22.204Z,47.10
2023-03-07T20:16:18.385Z,41.40
2023-03-07T20:19:19.326Z,42.30
2023-03-07T20:22:19.197Z,46.40
2023-03-07T20:25:21.543Z,50.80
2023-03-07T20:28:25.262Z,46.40
2023-03-07T20:31:29.475Z,44.70
2023-03-07T20:34:38.289Z,47.50
2023-03-07T20:37:40.275Z,42.00
2023-03-07T20:40:50.398Z,42.00
2023-03-07T20:44:00.774Z,42.40
2023-03-07T20:47:02.372Z,39.50
2023-03-07T20:50:08.404Z,40.20
2023-03-07T20:53:24.297Z,37.50
2023-03-07T20:56:27.282Z,34.40
2023-03-07T20:59:32.544Z,34.40
2023-03-07T21:02:38.419Z,36.20
2023-03-07T21:05:45.743Z,36.30
2023-03-07T21:08:55.885Z,36.20
2023-03-07T21:12:28.977Z,36.10
2023-03-07T21:15:49.036Z,40.00
2023-03-07T21:22:34.642Z,41.20
2023-03-07T21:25:40.834Z,40.00
2023-03-07T21:28:47.679Z,37.10
2023-03-07T21:31:50.124Z,37.50
2023-03-07T21:34:53.658Z,37.20
2023-03-07T21:38:02.655Z,37.70
2023-03-07T21:41:03.489Z,38.70
2023-03-07T21:51:36.453Z,36.30
2023-03-07T21:54:40.693Z,42.00
2023-03-07T21:57:41.433Z,39.20
2023-03-07T22:00:48.048Z,40.50
2023-03-07T22:03:59.777Z,34.10
2023-03-07T22:07:01.423Z,35.60
2023-03-07T22:10:17.390Z,30.70
2023-03-07T22:13:21.671Z,38.90
2023-03-07T22:16:42.566Z,32.00
2023-03-07T22:19:46.489Z,34.90
2023-03-07T22:22:51.427Z,32.20
2023-03-07T22:25:54.440Z,32.30
2023-03-07T22:28:55.432Z,30.80
2023-03-07T22:31:56.543Z,28.70
2023-03-07T22:35:01.785Z,32.90
2023-03-07T22:38:05.456Z,35.50
2023-03-07T22:41:07.562Z,35.80
2023-03-07T22:44:07.583Z,30.10
2023-03-07T22:47:08.563Z,37.40
2023-03-07T22:50:09.484Z,31.50
2023-03-07T22:53:09.591Z,32.10
2023-03-07T22:56:11.824Z,31.40
2023-03-07T22:59:18.480Z,27.90
2023-03-07T23:02:21.266Z,40.00
2023-03-07T23:05:26.811Z,27.80
2023-03-07T23:08:26.567Z,28.60
2023-03-07T23:11:28.522Z,29.90
2023-03-07T23:14:29.534Z,30.10
2023-03-07T23:17:30.476Z,28.70
2023-03-07T23:20:34.490Z,32.90
2023-03-07T23:23:34.555Z,32.40
2023-03-07T23:26:39.486Z,28.80
2023-03-07T23:29:39.550Z,36.70
2023-03-07T23:32:41.085Z,28.30
2023-03-07T23:35:42.562Z,34.60
2023-03-07T23:38:47.650Z,33.90
2023-03-07T23:41:47.539Z,31.00
2023-03-07T23:44:48.569Z,30.00
2023-03-07T23:47:49.531Z,30.90
2023-03-07T23:50:50.533Z,29.50
2023-03-07T23:53:50.624Z,26.10
2023-03-07T23:56:50.618Z,31.40
2023-03-07T23:59:50.560Z,31.20
